Time;durP1;ratioP1;P1;durP2;ratioP2;P2;SDS_P1;SDS_P2;PMS_P1;PMS_P2;Temp;Humidity;BMP_temperature;BMP_pressure;BME280_temperature;BME280_humidity;BME280_pressure;Samples;Min_cycle;Max_cycle;Signal;HPM_P1;HPM_P2
2023/10/28 00:08:42;;;;;;;10.75;4.10;;;;;;;;;;5277999;23;20042;-90
2023/10/28 00:11:55;;;;;;;10.05;4.13;;;;;;;;;;4942029;29;20071;-89
2023/10/28 00:17:48;;;;;;;5.33;4.23;;;;;;;;;;5191637;23;20071;-90
2023/10/28 00:29:35;;;;;;;6.50;3.55;;;;;;;;;;5276176;23;20026;-90
2023/10/28 01:04:38;;;;;;;9.15;5.40;;;;;;;;;;4940595;29;20028;-90
2023/10/28 01:07:36;;;;;;;9.07;5.70;;;;;;;;;;5238633;23;20084;-90
2023/10/28 01:18:33;;;;;;;8.57;5.63;;;;;;;;;;4956754;23;20040;-89
2023/10/28 01:23:57;;;;;;;10.25;5.55;;;;;;;;;;4921372;29;20079;-89
2023/10/28 01:52:19;;;;;;;14.68;6.45;;;;;;;;;;4920274;29;20044;-88
2023/10/28 01:55:34;;;;;;;12.70;6.95;;;;;;;;;;5011096;23;20047;-90
2023/10/28 02:26:00;;;;;;;23.83;7.57;;;;;;;;;;5425767;23;20425;-89
2023/10/28 02:40:48;;;;;;;14.30;8.32;;;;;;;;;;4944127;29;20080;-89
2023/10/28 02:46:09;;;;;;;13.53;7.90;;;;;;;;;;5352758;23;20064;31
2023/10/28 02:51:30;;;;;;;20.60;8.52;;;;;;;;;;4930674;29;20497;-90
2023/10/28 02:57:04;;;;;;;15.50;8.30;;;;;;;;;;5035400;23;20028;-88
2023/10/28 02:59:49;;;;;;;20.42;8.85;;;;;;;;;;4916033;29;20028;-89
2023/10/28 03:02:43;;;;;;;14.85;8.35;;;;;;;;;;4928793;29;20067;-89
2023/10/28 03:05:26;;;;;;;16.92;8.13;;;;;;;;;;5868633;23;20025;-87
2023/10/28 03:08:15;;;;;;;13.35;7.28;;;;;;;;;;4927507;29;20084;-88
2023/10/28 03:11:14;;;;;;;14.60;7.53;;;;;;;;;;4943165;29;20037;-87
2023/10/28 03:13:58;;;;;;;21.35;7.28;;;;;;;;;;5177631;23;20063;-88
2023/10/28 03:16:52;;;;;;;;;;;;;;;;;;;;;
2023/10/28 03:19:51;;;;;;;14.68;7.45;;;;;;;;;;4943227;29;20040;-89
2023/10/28 03:25:20;;;;;;;13.00;7.57;;;;;;;;;;5512331;23;20036;-87
2023/10/28 03:33:50;;;;;;;15.93;7.75;;;;;;;;;;4958936;23;20048;-88
2023/10/28 03:39:15;;;;;;;14.70;8.17;;;;;;;;;;4923450;23;20028;-89
2023/10/28 03:41:57;;;;;;;14.05;7.18;;;;;;;;;;4929034;29;20044;-86
2023/10/28 03:44:41;;;;;;;17.23;8.82;;;;;;;;;;5030617;23;20048;-89
2023/10/28 03:47:23;;;;;;;14.43;7.03;;;;;;;;;;4943114;29;20055;-86
2023/10/28 03:50:07;;;;;;;23.73;8.90;;;;;;;;;;4960904;23;20069;-89
2023/10/28 03:52:48;;;;;;;22.85;9.90;;;;;;;;;;4905848;29;20064;-88
2023/10/28 03:55:30;;;;;;;16.98;8.80;;;;;;;;;;4908038;29;20039;-88
2023/10/28 03:58:11;;;;;;;18.90;9.40;;;;;;;;;;4909165;29;20032;-89
2023/10/28 04:00:53;;;;;;;18.63;8.45;;;;;;;;;;4923649;29;20029;-87
2023/10/28 04:03:45;;;;;;;19.15;9.32;;;;;;;;;;4922610;29;20037;-90
2023/10/28 04:06:57;;;;;;;23.95;10.23;;;;;;;;;;4909521;29;20048;-87
2023/10/28 04:10:07;;;;;;;21.50;9.48;;;;;;;;;;4908922;29;20032;-88
2023/10/28 04:12:52;;;;;;;27.83;11.63;;;;;;;;;;5185859;23;20063;-89
2023/10/28 04:15:36;;;;;;;22.58;10.05;;;;;;;;;;4941987;29;20104;-88
2023/10/28 04:18:19;;;;;;;24.08;9.70;;;;;;;;;;4999697;23;20052;-88
2023/10/28 04:21:05;;;;;;;20.13;10.07;;;;;;;;;;4927817;29;20032;-89
2023/10/28 04:23:51;;;;;;;24.85;10.63;;;;;;;;;;5687791;23;20052;-89
2023/10/28 04:26:32;;;;;;;27.95;10.30;;;;;;;;;;4924016;29;20093;-91
2023/10/28 04:29:18;;;;;;;29.98;11.25;;;;;;;;;;4922702;29;20096;-88
2023/10/28 04:32:03;;;;;;;31.88;10.88;;;;;;;;;;4933943;29;20048;-87
2023/10/28 04:34:54;;;;;;;26.58;11.13;;;;;;;;;;5241214;23;20049;-86
2023/10/28 04:37:36;;;;;;;30.40;10.57;;;;;;;;;;4908651;29;20075;-87
2023/10/28 04:40:21;;;;;;;28.02;10.88;;;;;;;;;;4907493;29;20068;-88
2023/10/28 04:43:04;;;;;;;26.92;10.27;;;;;;;;;;4944266;23;20610;-89
2023/10/28 04:45:55;;;;;;;24.67;11.18;;;;;;;;;;4926904;29;20039;-87
2023/10/28 04:51:12;;;;;;;30.85;11.60;;;;;;;;;;4921991;29;20057;-87
2023/10/28 04:53:57;;;;;;;26.92;9.70;;;;;;;;;;4921845;29;20051;-85
2023/10/28 09:17:53;;;;;;;43.13;16.77;;;;;;;;;;5658810;23;20883;-87
2023/10/28 09:20:40;;;;;;;29.20;14.18;;;;;;;;;;4969504;23;20124;-88
2023/10/28 09:23:21;;;;;;;28.23;13.00;;;;;;;;;;4927027;29;20238;-89
2023/10/28 09:28:47;;;;;;;25.27;13.97;;;;;;;;;;5834607;23;20056;-87
2023/10/28 09:31:33;;;;;;;22.75;12.00;;;;;;;;;;4936221;29;20036;-88
2023/10/28 09:36:49;;;;;;;26.53;11.83;;;;;;;;;;5780167;23;20084;-88
2023/10/28 09:39:32;;;;;;;27.88;11.05;;;;;;;;;;4939931;29;20068;-88
2023/10/28 09:42:16;;;;;;;22.95;10.40;;;;;;;;;;4940119;29;20092;-89
2023/10/28 09:45:09;;;;;;;20.45;9.73;;;;;;;;;;4925890;29;20061;-87
2023/10/28 09:48:07;;;;;;;24.50;11.13;;;;;;;;;;4998817;23;20050;-91
2023/10/28 09:50:50;;;;;;;19.52;8.98;;;;;;;;;;4940457;29;20039;-90
2023/10/28 09:53:54;;;;;;;21.27;8.57;;;;;;;;;;4939996;29;20028;-89
2023/10/28 09:56:38;;;;;;;18.42;9.13;;;;;;;;;;4925207;29;20027;-90
2023/10/28 09:59:23;;;;;;;19.42;9.30;;;;;;;;;;4939515;29;20060;-89
2023/10/28 10:02:11;;;;;;;24.25;8.48;;;;;;;;;;4939905;29;20043;-90
2023/10/28 10:05:20;;;;;;;19.85;9.50;;;;;;;;;;5197844;23;20067;-90
2023/10/28 10:08:22;;;;;;;19.17;8.77;;;;;;;;;;4939147;29;20042;-91
2023/10/28 10:11:22;;;;;;;17.33;8.75;;;;;;;;;;4940071;29;20052;-89
2023/10/28 10:14:12;;;;;;;18.20;8.63;;;;;;;;;;4941076;29;20036;-90
2023/10/28 10:17:12;;;;;;;20.83;9.20;;;;;;;;;;4924366;29;20024;-91
2023/10/28 10:19:53;;;;;;;13.57;7.70;;;;;;;;;;4925960;29;20101;-91
2023/10/28 10:22:41;;;;;;;;;;;;;;;;;;5161023;23;20044;-88
2023/10/28 10:25:30;;;;;;;17.52;7.10;;;;;;;;;;4921432;29;19969;-88
2023/10/28 10:28:19;;;;;;;0.00;0.00;;;;;;;;;;4921138;29;20067;-91
2023/10/28 10:31:13;;;;;;;0.03;0.03;;;;;;;;;;4921180;29;20035;-88
2023/10/28 10:34:08;;;;;;;0.00;0.00;;;;;;;;;;4921614;29;20024;-88
2023/10/28 10:36:55;;;;;;;16.13;6.28;;;;;;;;;;4907111;29;20070;-85
2023/10/28 10:39:49;;;;;;;0.20;0.20;;;;;;;;;;5237927;23;20040;-88
2023/10/28 10:45:20;;;;;;;2.55;0.95;;;;;;;;;;5215413;23;20032;-89
2023/10/28 10:48:10;;;;;;;1.25;0.85;;;;;;;;;;4925872;29;20044;-90
2023/10/28 10:50:51;;;;;;;1.25;0.88;;;;;;;;;;4926709;29;20049;-88
2023/10/28 10:53:40;;;;;;;1.38;0.47;;;;;;;;;;4938377;29;20052;-88
2023/10/28 10:56:21;;;;;;;0.00;0.00;;;;;;;;;;4925942;29;20108;-88
2023/10/28 10:59:14;;;;;;;1.55;1.20;;;;;;;;;;4942830;29;20043;-89
2023/10/28 11:01:57;;;;;;;0.00;0.00;;;;;;;;;;4928770;29;20096;-87
2023/10/28 11:04:37;;;;;;;0.10;0.10;;;;;;;;;;4929216;29;20052;-87
2023/10/28 11:07:20;;;;;;;9.63;8.48;;;;;;;;;;4943399;29;20031;-90
2023/10/28 11:10:04;;;;;;;0.00;0.00;;;;;;;;;;4929015;29;20055;-90
2023/10/28 11:12:46;;;;;;;0.10;0.00;;;;;;;;;;4928789;29;20040;-90
2023/10/28 11:15:16;;;;;;;1.35;0.40;;;;;;;;;;4928236;29;20063;-91
2023/10/28 11:17:57;;;;;;;1.10;0.63;;;;;;;;;;4970105;23;20036;-89
2023/10/28 11:20:39;;;;;;;0.00;0.00;;;;;;;;;;4923812;29;20060;-91
2023/10/28 11:23:20;;;;;;;0.00;0.00;;;;;;;;;;4924120;29;20068;-87
2023/10/28 11:26:02;;;;;;;0.00;0.00;;;;;;;;;;4909857;29;20036;-87
2023/10/28 11:28:48;;;;;;;0.35;0.35;;;;;;;;;;4909344;29;20103;-88
2023/10/28 11:31:20;;;;;;;0.55;0.55;;;;;;;;;;4924371;29;20063;-92
2023/10/28 11:34:04;;;;;;;0.00;0.00;;;;;;;;;;4909515;29;20020;-91
2023/10/28 11:39:26;;;;;;;0.20;0.20;;;;;;;;;;4942022;29;20044;-89
2023/10/28 11:42:13;;;;;;;0.00;0.00;;;;;;;;;;4941489;29;20051;-89
2023/10/28 11:44:55;;;;;;;0.00;0.00;;;;;;;;;;5574537;23;20894;-86
2023/10/28 11:47:38;;;;;;;0.00;0.00;;;;;;;;;;4921937;29;20051;-91
2023/10/28 11:50:12;;;;;;;0.90;0.85;;;;;;;;;;4907921;29;20044;-91
2023/10/28 11:52:49;;;;;;;0.00;0.00;;;;;;;;;;4907976;29;20116;-90
2023/10/28 11:55:30;;;;;;;0.00;0.00;;;;;;;;;;4907973;29;20403;-91
2023/10/28 11:58:11;;;;;;;0.00;0.00;;;;;;;;;;4922476;29;20028;-88
2023/10/28 12:00:56;;;;;;;0.00;0.00;;;;;;;;;;4921353;29;20036;-91
2023/10/28 12:03:41;;;;;;;0.00;0.00;;;;;;;;;;4906564;29;20041;-92
2023/10/28 12:06:28;;;;;;;0.20;0.20;;;;;;;;;;4907581;29;20040;-91
2023/10/28 12:09:12;;;;;;;0.10;0.10;;;;;;;;;;4920300;29;20049;-90
2023/10/28 12:11:54;;;;;;;0.00;0.00;;;;;;;;;;4908776;29;20144;-90
2023/10/28 12:17:25;;;;;;;0.00;0.00;;;;;;;;;;4923613;23;20063;-89
2023/10/28 12:20:14;;;;;;;0.00;0.00;;;;;;;;;;4908632;29;20040;-89
2023/10/28 12:23:09;;;;;;;0.00;0.00;;;;;;;;;;4922565;29;20037;-86
2023/10/28 12:25:50;;;;;;;0.00;0.00;;;;;;;;;;4923211;29;20068;-90
2023/10/28 12:28:31;;;;;;;0.03;0.03;;;;;;;;;;4922924;29;20040;-89
2023/10/28 12:31:12;;;;;;;0.00;0.00;;;;;;;;;;4909014;29;20016;-88
2023/10/28 12:33:54;;;;;;;0.10;0.10;;;;;;;;;;4908555;29;20095;-88
2023/10/28 12:36:35;;;;;;;0.00;0.00;;;;;;;;;;4908570;29;20016;-90
2023/10/28 12:39:16;;;;;;;0.20;0.20;;;;;;;;;;4908549;29;20036;-89
2023/10/28 12:41:59;;;;;;;0.30;0.30;;;;;;;;;;4922881;29;20028;-90
2023/10/28 12:44:40;;;;;;;0.30;0.30;;;;;;;;;;4922707;29;20029;-90
2023/10/28 12:49:56;;;;;;;0.00;0.00;;;;;;;;;;5325550;23;20056;-91
2023/10/28 12:52:28;;;;;;;0.75;0.40;;;;;;;;;;4957410;23;20049;-88
2023/10/28 12:57:46;;;;;;;1.05;0.65;;;;;;;;;;5231089;23;20047;-89
2023/10/28 13:00:28;;;;;;;0.00;0.00;;;;;;;;;;4926753;29;20059;-90
2023/10/28 13:03:10;;;;;;;0.00;0.00;;;;;;;;;;4927052;29;20087;-91
2023/10/28 13:05:53;;;;;;;0.65;0.65;;;;;;;;;;4927202;29;20036;-91
2023/10/28 13:11:17;;;;;;;0.03;0.03;;;;;;;;;;5344980;23;20056;-89
2023/10/28 13:14:05;;;;;;;0.08;0.08;;;;;;;;;;4927550;29;20031;-90
2023/10/28 13:16:47;;;;;;;0.00;0.00;;;;;;;;;;4927883;29;20032;-91
2023/10/28 13:19:32;;;;;;;0.05;0.05;;;;;;;;;;4940638;29;20044;-90
2023/10/28 13:22:14;;;;;;;0.00;0.00;;;;;;;;;;4927472;29;20039;-88
2023/10/28 13:24:55;;;;;;;0.10;0.10;;;;;;;;;;4927043;29;20021;-90
2023/10/28 13:27:37;;;;;;;0.10;0.10;;;;;;;;;;4926643;29;20024;-88
2023/10/28 13:30:20;;;;;;;0.10;0.10;;;;;;;;;;4926626;29;20087;-88
2023/10/28 13:33:12;;;;;;;0.10;0.10;;;;;;;;;;4938758;23;20036;-87
2023/10/28 13:35:58;;;;;;;0.00;0.00;;;;;;;;;;4941023;29;20032;-91
2023/10/28 13:38:49;;;;;;;0.00;0.00;;;;;;;;;;4939975;29;20048;-90
2023/10/28 13:41:33;;;;;;;0.00;0.00;;;;;;;;;;4940873;29;20044;-89
2023/10/28 13:44:16;;;;;;;0.17;0.17;;;;;;;;;;4940277;29;20103;-88
2023/10/28 13:47:16;;;;;;;0.00;0.00;;;;;;;;;;4926127;29;20035;-88
2023/10/28 14:20:55;;;;;;;0.00;0.00;;;;;;;;;;4939681;29;20044;-88
2023/10/28 14:23:39;;;;;;;0.00;0.00;;;;;;;;;;4925477;29;20047;-88
2023/10/28 14:31:54;;;;;;;0.00;0.00;;;;;;;;;;5915131;23;20315;-90
2023/10/28 14:34:48;;;;;;;0.00;0.00;;;;;;;;;;4923515;29;20061;-88
2023/10/28 14:37:28;;;;;;;0.03;0.03;;;;;;;;;;5732476;23;20044;-88
2023/10/28 14:40:09;;;;;;;0.00;0.00;;;;;;;;;;4929632;29;20093;-88
2023/10/28 14:42:52;;;;;;;0.00;0.00;;;;;;;;;;4944019;29;20024;-89
2023/10/28 14:45:35;;;;;;;0.00;0.00;;;;;;;;;;4929345;29;20028;-89
2023/10/28 14:51:13;;;;;;;0.03;0.03;;;;;;;;;;5408456;23;20060;-87
2023/10/28 14:53:55;;;;;;;0.08;0.08;;;;;;;;;;4943310;29;20036;-88
2023/10/28 14:56:47;;;;;;;0.00;0.00;;;;;;;;;;5093534;23;20061;-88
2023/10/28 15:05:07;;;;;;;0.55;0.45;;;;;;;;;;5028015;23;20048;-90
2023/10/28 15:13:08;;;;;;;0.10;0.10;;;;;;;;;;5255717;23;20051;-92
2023/10/28 15:15:51;;;;;;;0.05;0.05;;;;;;;;;;4916077;29;20032;-88
2023/10/28 15:18:34;;;;;;;0.00;0.00;;;;;;;;;;4942807;29;20047;-89
2023/10/28 15:21:37;;;;;;;0.47;0.43;;;;;;;;;;4928336;29;20048;-89
2023/10/28 15:24:25;;;;;;;0.20;0.20;;;;;;;;;;4942323;29;20095;-87
2023/10/28 15:27:05;;;;;;;0.00;0.00;;;;;;;;;;4943031;29;20028;-91
2023/10/28 15:29:46;;;;;;;0.00;0.00;;;;;;;;;;4928609;29;20024;-87
2023/10/28 15:35:02;;;;;;;0.10;0.10;;;;;;;;;;5412061;23;20129;-88
2023/10/28 15:40:36;;;;;;;0.00;0.00;;;;;;;;;;5199713;23;20048;-87
2023/10/28 15:43:08;;;;;;;0.10;0.10;;;;;;;;;;5219820;23;20410;-89
2023/10/28 15:46:02;;;;;;;0.10;0.10;;;;;;;;;;4965158;23;20040;-90
2023/10/28 15:48:47;;;;;;;0.10;0.10;;;;;;;;;;4910059;29;20040;-88
2023/10/28 15:51:47;;;;;;;0.00;0.00;;;;;;;;;;4909572;29;20060;-91
2023/10/28 16:06:11;;;;;;;0.03;0.03;;;;;;;;;;5112712;23;20036;-88
2023/10/28 16:11:37;;;;;;;0.00;0.00;;;;;;;;;;5125899;23;19939;-91
2023/10/28 16:14:20;;;;;;;0.00;0.00;;;;;;;;;;4909318;29;20032;-88
2023/10/28 16:17:01;;;;;;;0.00;0.00;;;;;;;;;;4909027;29;20053;-88
2023/10/28 16:19:41;;;;;;;0.05;0.05;;;;;;;;;;4923207;29;20084;-88
2023/10/28 16:22:27;;;;;;;0.00;0.00;;;;;;;;;;4923291;29;20044;-91
2023/10/28 16:25:12;;;;;;;0.00;0.00;;;;;;;;;;5048876;23;20052;-92
2023/10/28 16:27:53;;;;;;;0.00;0.00;;;;;;;;;;4928070;29;20071;-87
2023/10/28 16:33:42;;;;;;;1.65;0.55;;;;;;;;;;5306590;23;20032;-87
2023/10/28 16:36:26;;;;;;;0.57;0.57;;;;;;;;;;4968116;23;20051;-91
2023/10/28 16:39:20;;;;;;;0.10;0.10;;;;;;;;;;4940849;29;20035;-92
2023/10/28 16:42:02;;;;;;;0.00;0.00;;;;;;;;;;4926538;29;20028;-92
2023/10/28 16:44:47;;;;;;;0.00;0.00;;;;;;;;;;4940442;29;20108;-90
2023/10/28 16:52:39;;;;;;;0.40;0.40;;;;;;;;;;4771858;23;15178676;-92
2023/10/28 16:57:54;;;;;;;0.00;0.00;;;;;;;;;;4968651;23;20040;-89
2023/10/28 17:03:20;;;;;;;0.00;0.00;;;;;;;;;;5221288;23;20446;-89
2023/10/28 17:06:01;;;;;;;0.00;0.00;;;;;;;;;;4941178;29;20083;-89
2023/10/28 17:08:43;;;;;;;2.47;0.93;;;;;;;;;;4926354;29;20063;-89
2023/10/28 17:11:24;;;;;;;0.10;0.10;;;;;;;;;;4941201;29;20032;-90
2023/10/28 17:17:03;;;;;;;0.00;0.00;;;;;;;;;;5615337;23;20048;-88
2023/10/28 17:19:47;;;;;;;0.00;0.00;;;;;;;;;;4941298;29;20052;-87
2023/10/28 17:22:28;;;;;;;0.00;0.00;;;;;;;;;;4926935;29;20087;-88
2023/10/28 17:25:09;;;;;;;0.00;0.00;;;;;;;;;;4941155;29;20060;-86
2023/10/28 17:27:54;;;;;;;0.63;0.63;;;;;;;;;;4926709;29;20032;-90
2023/10/28 17:30:38;;;;;;;0.00;0.00;;;;;;;;;;4940889;29;20063;-86
2023/10/28 17:33:21;;;;;;;0.00;0.00;;;;;;;;;;4940725;29;20048;-90
2023/10/28 17:36:05;;;;;;;0.00;0.00;;;;;;;;;;4927298;29;20020;-88
2023/10/28 17:38:48;;;;;;;0.03;0.03;;;;;;;;;;5143790;23;20036;-90
2023/10/28 17:41:30;;;;;;;0.00;0.00;;;;;;;;;;4947224;23;20040;-87
2023/10/28 17:44:32;;;;;;;0.00;0.00;;;;;;;;;;4907725;29;20071;-89
2023/10/28 17:49:49;;;;;;;0.10;0.10;;;;;;;;;;5030124;23;20051;-93
2023/10/28 17:55:29;;;;;;;0.10;0.10;;;;;;;;;;4939675;27;20040;-88
2023/10/28 17:58:13;;;;;;;0.03;0.03;;;;;;;;;;4926062;29;20044;-90
2023/10/28 18:01:01;;;;;;;0.05;0.05;;;;;;;;;;4926999;29;20109;-89
2023/10/28 18:04:02;;;;;;;1.52;0.75;;;;;;;;;;4925883;29;20024;-88
2023/10/28 18:06:44;;;;;;;0.00;0.00;;;;;;;;;;5164080;23;20061;-90
2023/10/28 18:12:13;;;;;;;0.00;0.00;;;;;;;;;;4939774;29;20058;-87
2023/10/28 18:17:42;;;;;;;0.00;0.00;;;;;;;;;;5261836;23;20036;-87
2023/10/28 18:20:25;;;;;;;0.00;0.00;;;;;;;;;;5189075;23;20068;-90
2023/10/28 18:33:33;;;;;;;0.40;0.32;;;;;;;;;;4772582;27;19955;-88
2023/10/28 18:36:17;;;;;;;0.63;0.63;;;;;;;;;;4925978;29;20044;-88
2023/10/28 18:39:25;;;;;;;0.07;0.07;;;;;;;;;;4940307;29;20024;-88
2023/10/28 18:42:17;;;;;;;0.00;0.00;;;;;;;;;;4939923;29;20039;-88
2023/10/28 18:45:00;;;;;;;0.65;0.65;;;;;;;;;;4940206;29;20020;-90
2023/10/28 18:47:48;;;;;;;0.30;0.30;;;;;;;;;;4939967;29;20032;-88
2023/10/28 18:50:39;;;;;;;0.17;0.17;;;;;;;;;;5328560;23;20047;-90
2023/10/28 18:53:20;;;;;;;0.00;0.00;;;;;;;;;;4940175;29;20040;-91
2023/10/28 18:56:02;;;;;;;0.80;0.80;;;;;;;;;;4924475;29;20056;-89
2023/10/28 18:58:45;;;;;;;0.00;0.00;;;;;;;;;;4940154;29;20109;-89
2023/10/28 19:01:28;;;;;;;0.08;0.08;;;;;;;;;;4923586;29;20296;-87
2023/10/28 19:04:11;;;;;;;0.00;0.00;;;;;;;;;;4925842;29;20035;-90
2023/10/28 19:06:55;;;;;;;0.00;0.00;;;;;;;;;;4925573;29;20088;-91
2023/10/28 19:09:39;;;;;;;0.55;0.45;;;;;;;;;;4939958;29;20108;-90
2023/10/28 19:12:21;;;;;;;0.00;0.00;;;;;;;;;;4939855;29;20043;-88
2023/10/28 19:15:02;;;;;;;0.00;0.00;;;;;;;;;;4925696;29;20067;-88
2023/10/28 19:17:45;;;;;;;0.10;0.10;;;;;;;;;;4926905;29;20044;-89
2023/10/28 19:20:29;;;;;;;0.00;0.00;;;;;;;;;;4929238;29;20060;-87
2023/10/28 19:23:11;;;;;;;0.10;0.10;;;;;;;;;;4943280;29;20017;-89
2023/10/28 19:25:55;;;;;;;0.00;0.00;;;;;;;;;;5146480;23;20135;-88
2023/10/28 19:28:48;;;;;;;0.00;0.00;;;;;;;;;;4943792;29;20072;-90
2023/10/28 19:31:29;;;;;;;0.00;0.00;;;;;;;;;;5235294;23;20047;-89
2023/10/28 19:34:17;;;;;;;0.00;0.00;;;;;;;;;;4928920;29;20059;-90
2023/10/28 19:37:01;;;;;;;0.10;0.10;;;;;;;;;;4928714;29;20041;-90
2023/10/28 19:39:45;;;;;;;0.00;0.00;;;;;;;;;;4943004;29;20047;-87
2023/10/28 19:42:26;;;;;;;0.03;0.03;;;;;;;;;;4928927;29;20075;-88
2023/10/28 19:45:11;;;;;;;0.00;0.00;;;;;;;;;;5301376;23;20072;-88
2023/10/28 19:47:56;;;;;;;0.00;0.00;;;;;;;;;;4909439;29;20029;-86
2023/10/28 19:50:38;;;;;;;0.03;0.03;;;;;;;;;;4966583;23;20040;-89
2023/10/28 19:53:27;;;;;;;0.08;0.08;;;;;;;;;;4929971;23;20058;-90
2023/10/28 19:56:31;;;;;;;0.10;0.10;;;;;;;;;;4941843;29;20035;-90
2023/10/28 19:59:27;;;;;;;0.20;0.10;;;;;;;;;;4942426;29;20028;-88
2023/10/28 20:02:10;;;;;;;0.00;0.00;;;;;;;;;;4941478;29;20087;-85
2023/10/28 20:04:57;;;;;;;0.10;0.10;;;;;;;;;;4929218;29;20020;-90
2023/10/28 20:07:42;;;;;;;0.00;0.00;;;;;;;;;;4928261;29;20055;-89
2023/10/28 20:10:32;;;;;;;0.00;0.00;;;;;;;;;;4942498;29;20040;-88
2023/10/28 20:13:13;;;;;;;0.00;0.00;;;;;;;;;;4942456;29;20043;-88
2023/10/28 20:15:57;;;;;;;0.00;0.00;;;;;;;;;;4941967;29;20028;-88
2023/10/28 20:18:40;;;;;;;0.00;0.00;;;;;;;;;;4928950;29;20097;-87
2023/10/28 20:21:32;;;;;;;0.03;0.03;;;;;;;;;;4942018;29;20038;-88
2023/10/28 20:24:51;;;;;;;1.45;0.52;;;;;;;;;;4970451;23;20055;-89
2023/10/28 20:27:38;;;;;;;0.00;0.00;;;;;;;;;;4922082;29;20036;-89
2023/10/28 20:30:30;;;;;;;0.00;0.00;;;;;;;;;;4941893;29;20077;-92
2023/10/28 20:33:14;;;;;;;0.40;0.40;;;;;;;;;;4941923;29;20059;-90
2023/10/28 20:36:02;;;;;;;0.30;0.30;;;;;;;;;;4942084;29;20071;-88
2023/10/28 20:38:43;;;;;;;0.00;0.00;;;;;;;;;;4926987;29;20091;-89
2023/10/28 20:41:25;;;;;;;0.03;0.03;;;;;;;;;;5050815;23;20060;-88
2023/10/28 20:44:09;;;;;;;0.05;0.05;;;;;;;;;;4942065;29;20024;-87
2023/10/28 20:46:53;;;;;;;0.30;0.30;;;;;;;;;;4926320;29;20036;-90
2023/10/28 20:49:38;;;;;;;0.05;0.05;;;;;;;;;;4941659;29;20096;-87
2023/10/28 20:52:23;;;;;;;0.10;0.10;;;;;;;;;;4926709;29;20032;-89
2023/10/28 20:55:03;;;;;;;0.08;0.08;;;;;;;;;;4928093;29;20092;-89
2023/10/28 20:58:06;;;;;;;0.20;0.20;;;;;;;;;;4928089;29;20032;-86
2023/10/28 21:00:51;;;;;;;0.00;0.00;;;;;;;;;;4941079;29;20151;-88
2023/10/28 21:03:37;;;;;;;0.20;0.10;;;;;;;;;;5318237;23;20034;-87
2023/10/28 21:06:44;;;;;;;0.05;0.05;;;;;;;;;;5188897;23;20040;-88
2023/10/28 21:12:04;;;;;;;0.00;0.00;;;;;;;;;;4922113;29;20032;-91
2023/10/28 21:14:45;;;;;;;0.00;0.00;;;;;;;;;;4908269;29;20057;-90
2023/10/28 21:18:02;;;;;;;0.70;0.70;;;;;;;;;;4908201;29;20087;-90
2023/10/28 21:20:43;;;;;;;0.00;0.00;;;;;;;;;;4929670;23;20100;-87
2023/10/28 21:26:44;;;;;;;0.00;0.00;;;;;;;;;;4921335;29;20414;-89
2023/10/28 22:09:13;;;;;;;0.00;0.00;;;;;;;;;;5817677;23;20043;-88
2023/10/28 22:43:09;;;;;;;0.00;0.00;;;;;;;;;;5185081;23;20036;-88
2023/10/28 23:04:23;;;;;;;0.10;0.10;;;;;;;;;;5710091;23;20044;-89
2023/10/28 23:07:23;;;;;;;0.00;0.00;;;;;;;;;;4910905;29;20032;-90
2023/10/28 23:10:04;;;;;;;1.23;1.20;;;;;;;;;;4922354;29;20088;-90
2023/10/28 23:18:10;;;;;;;0.13;0.13;;;;;;;;;;5375534;23;20036;-88
2023/10/28 23:27:01;;;;;;;0.10;0.10;;;;;;;;;;511659;27;20305;-85
2023/10/28 23:29:46;;;;;;;0.98;0.98;;;;;;;;;;4921985;29;20045;-90
2023/10/28 23:32:37;;;;;;;0.00;0.00;;;;;;;;;;5027039;23;20050;-89
2023/10/28 23:41:14;;;;;;;3.15;0.60;;;;;;;;;;5571664;23;20036;-87
2023/10/28 23:43:58;;;;;;;0.65;0.45;;;;;;;;;;4940387;29;20052;-89
2023/10/28 23:46:40;;;;;;;0.30;0.22;;;;;;;;;;4942863;29;20055;-88
2023/10/28 23:49:21;;;;;;;0.10;0.10;;;;;;;;;;4928539;29;20031;-87
2023/10/28 23:52:03;;;;;;;0.10;0.10;;;;;;;;;;4987653;23;20048;-86
2023/10/28 23:54:49;;;;;;;0.10;0.10;;;;;;;;;;4905017;29;20071;-86
